Time;durP1;ratioP1;P1;durP2;ratioP2;P2;SDS_P1;SDS_P2;PMS_P1;PMS_P2;Temp;Humidity;BMP_temperature;BMP_pressure;BME280_temperature;BME280_humidity;BME280_pressure;Samples;Min_cycle;Max_cycle;Signal;HPM_P1;HPM_P2
2021/04/07 00:00:50;;;;;;;5.07;0.77;;;10.20;49.30;;;;;;5052398;28;20127;-72
2021/04/07 00:03:16;;;;;;;4.72;1.15;;;10.30;48.90;;;;;;5052411;28;20021;-71
2021/04/07 00:05:44;;;;;;;1.55;0.70;;;10.40;48.80;;;;;;5052701;28;20041;-70
2021/04/07 00:08:10;;;;;;;3.05;0.70;;;10.50;48.40;;;;;;5052632;28;20025;-71
2021/04/07 00:10:41;;;;;;;1.73;0.73;;;10.50;48.20;;;;;;5052718;28;20025;-73
2021/04/07 00:13:08;;;;;;;1.35;0.70;;;10.40;47.90;;;;;;5053223;28;20531;-71
2021/04/07 00:15:34;;;;;;;0.77;0.50;;;10.40;47.70;;;;;;5051192;28;20035;-70
2021/04/07 00:18:02;;;;;;;3.10;0.73;;;10.40;47.70;;;;;;5052625;28;20104;-71
2021/04/07 00:20:29;;;;;;;1.30;0.60;;;10.40;48.00;;;;;;5052274;28;20075;-72
2021/04/07 00:22:56;;;;;;;1.25;0.70;;;10.30;48.20;;;;;;5052583;28;20098;-70
2021/04/07 00:25:23;;;;;;;2.33;0.63;;;10.20;48.00;;;;;;5052521;28;20096;-71
2021/04/07 00:27:55;;;;;;;1.70;0.77;;;10.20;48.40;;;;;;5052618;28;20088;-71
2021/04/07 00:30:25;;;;;;;2.38;0.73;;;10.20;48.40;;;;;;5052475;28;20029;-71
2021/04/07 00:32:51;;;;;;;0.90;0.50;;;10.10;48.20;;;;;;5052575;28;20017;-71
2021/04/07 00:35:18;;;;;;;1.42;0.80;;;10.20;48.00;;;;;;5052610;28;20029;-71
2021/04/07 00:37:43;;;;;;;1.77;1.10;;;10.30;47.90;;;;;;5052584;28;20025;-70
2021/04/07 00:40:10;;;;;;;1.40;0.55;;;10.30;48.10;;;;;;5052595;28;20100;-71
2021/04/07 00:42:37;;;;;;;3.75;0.60;;;10.40;48.30;;;;;;5052505;28;20114;-73
2021/04/07 00:45:08;;;;;;;2.70;0.68;;;10.50;47.90;;;;;;5052827;28;20032;-71
2021/04/07 00:47:34;;;;;;;4.00;0.70;;;10.50;47.70;;;;;;5052671;28;20029;-71
2021/04/07 00:50:01;;;;;;;0.73;0.47;;;10.50;47.70;;;;;;5052610;28;20350;-74
2021/04/07 00:52:26;;;;;;;1.88;0.60;;;10.50;47.70;;;;;;5052508;28;20025;-71
2021/04/07 00:54:54;;;;;;;0.90;0.50;;;10.50;47.80;;;;;;5051040;28;20536;-70
2021/04/07 00:57:21;;;;;;;1.35;0.60;;;10.40;47.40;;;;;;5050933;28;20071;-71
2021/04/07 00:59:47;;;;;;;1.92;0.80;;;10.50;47.80;;;;;;5052264;28;20100;-71
2021/04/07 01:02:17;;;;;;;1.70;0.68;;;10.40;47.00;;;;;;5052161;28;20028;-71
2021/04/07 01:04:44;;;;;;;1.40;0.70;;;10.30;46.90;;;;;;5052345;28;20143;-69
2021/04/07 01:07:13;;;;;;;2.03;0.63;;;10.30;47.00;;;;;;5052037;28;20021;-72
2021/04/07 01:09:40;;;;;;;2.55;0.82;;;10.30;47.20;;;;;;5052196;28;20358;-71
2021/04/07 01:12:07;;;;;;;2.15;0.77;;;10.40;47.00;;;;;;5050850;28;20056;-71
2021/04/07 01:14:33;;;;;;;2.03;0.85;;;10.40;47.30;;;;;;5055161;28;20029;-70
2021/04/07 01:17:04;;;;;;;0.85;0.47;;;10.40;46.80;;;;;;5055594;28;20025;-71
2021/04/07 01:19:30;;;;;;;1.80;0.80;;;10.40;47.00;;;;;;5055745;28;20544;-71
2021/04/07 01:21:56;;;;;;;3.50;0.70;;;10.30;46.70;;;;;;5055370;28;20493;-72
2021/04/07 01:24:23;;;;;;;0.43;0.43;;;10.50;47.30;;;;;;5055622;28;20454;-70
2021/04/07 01:26:50;;;;;;;3.20;0.70;;;10.50;46.90;;;;;;5055345;28;20505;-70
2021/04/07 01:29:16;;;;;;;1.52;0.60;;;10.40;46.90;;;;;;5055496;28;20362;-71
2021/04/07 01:31:50;;;;;;;0.90;0.55;;;10.30;47.00;;;;;;5055265;28;20021;-70
2021/04/07 01:34:21;;;;;;;1.55;0.60;;;10.40;47.20;;;;;;5055903;28;20374;-70
2021/04/07 01:36:47;;;;;;;1.85;0.57;;;10.40;47.90;;;;;;5055294;28;20466;-71
2021/04/07 01:39:13;;;;;;;0.90;0.70;;;10.40;47.20;;;;;;5055719;28;20108;-71
2021/04/07 01:41:41;;;;;;;4.00;0.70;;;10.40;47.30;;;;;;5055313;28;20025;-71
2021/04/07 01:44:10;;;;;;;2.00;0.50;;;10.40;47.10;;;;;;5056090;28;20024;-71
2021/04/07 01:46:37;;;;;;;2.13;0.70;;;10.30;47.70;;;;;;5056063;28;20021;-71
2021/04/07 01:49:07;;;;;;;2.13;0.50;;;10.40;47.30;;;;;;5055866;28;20029;-71
2021/04/07 01:51:34;;;;;;;2.45;0.80;;;10.30;47.60;;;;;;5054958;28;20095;-72
2021/04/07 01:54:04;;;;;;;1.42;0.70;;;10.10;46.80;;;;;;5054966;28;20108;-70
2021/04/07 01:56:30;;;;;;;0.95;0.60;;;10.00;48.00;;;;;;5053484;28;20029;-70
2021/04/07 01:59:01;;;;;;;1.70;0.73;;;9.90;48.80;;;;;;5055018;28;20028;-72
2021/04/07 02:01:27;;;;;;;2.05;0.90;;;9.60;48.80;;;;;;5054885;28;20032;-72
2021/04/07 02:03:53;;;;;;;1.75;0.85;;;9.50;49.00;;;;;;5053621;28;20025;-72
2021/04/07 02:06:19;;;;;;;4.60;0.80;;;9.40;49.00;;;;;;5054908;28;20044;-72
2021/04/07 02:08:45;;;;;;;2.53;0.90;;;9.40;49.30;;;;;;5054889;28;20471;-72
2021/04/07 02:11:11;;;;;;;1.70;0.68;;;9.60;49.00;;;;;;5054484;28;20363;-73
2021/04/07 02:13:37;;;;;;;2.80;0.60;;;9.70;48.50;;;;;;5054671;28;20038;-72
2021/04/07 02:16:12;;;;;;;2.08;0.82;;;9.80;48.00;;;;;;5053227;28;20025;-70
2021/04/07 02:18:39;;;;;;;1.58;0.60;;;9.80;47.70;;;;;;5053114;28;20131;-71
2021/04/07 02:21:05;;;;;;;1.63;0.63;;;9.90;48.30;;;;;;5054212;28;20465;-72
2021/04/07 02:23:31;;;;;;;1.88;0.60;;;9.80;47.60;;;;;;5054533;28;20037;-73
2021/04/07 02:25:57;;;;;;;3.97;0.80;;;9.80;47.90;;;;;;5053640;28;20505;-73
2021/04/07 02:28:23;;;;;;;1.67;0.77;;;9.70;47.50;;;;;;5054487;28;20021;-72
2021/04/07 02:30:49;;;;;;;3.03;0.80;;;9.60;47.90;;;;;;5052950;28;20036;-71
2021/04/07 02:33:15;;;;;;;0.52;0.52;;;9.40;48.00;;;;;;5054481;28;20021;-70
2021/04/07 02:35:40;;;;;;;2.45;0.70;;;9.40;47.90;;;;;;5054191;28;20055;-70
2021/04/07 02:38:10;;;;;;;2.10;0.90;;;9.20;48.10;;;;;;5054069;28;20032;-71
2021/04/07 02:40:36;;;;;;;1.40;0.68;;;9.20;48.40;;;;;;5053934;28;20348;-71
2021/04/07 02:43:02;;;;;;;1.25;0.68;;;9.30;48.80;;;;;;5053967;28;20032;-72
2021/04/07 02:45:28;;;;;;;1.83;0.90;;;9.30;48.50;;;;;;5054008;28;20037;-70
2021/04/07 02:47:53;;;;;;;0.85;0.50;;;9.30;48.30;;;;;;5054110;28;20094;-72
2021/04/07 02:50:19;;;;;;;1.90;0.60;;;9.20;47.90;;;;;;5053758;28;20032;-72
2021/04/07 02:52:45;;;;;;;1.20;0.70;;;9.00;47.90;;;;;;5053815;28;20479;-71
2021/04/07 02:55:11;;;;;;;1.20;0.68;;;9.00;48.00;;;;;;5053812;28;20547;-73
2021/04/07 02:57:37;;;;;;;1.15;0.60;;;8.80;48.10;;;;;;5054044;28;20159;-73
2021/04/07 03:00:05;;;;;;;4.97;1.23;;;8.80;48.00;;;;;;5052327;28;20481;-72
2021/04/07 03:02:31;;;;;;;2.70;0.80;;;8.70;48.20;;;;;;5053842;28;20052;-73
2021/04/07 03:04:58;;;;;;;1.77;0.70;;;8.60;48.20;;;;;;5053778;28;20071;-73
2021/04/07 03:07:24;;;;;;;2.85;0.68;;;8.70;48.30;;;;;;5053728;28;20032;-72
2021/04/07 03:09:50;;;;;;;7.18;2.38;;;8.70;48.10;;;;;;5053682;28;20025;-72
2021/04/07 03:12:15;;;;;;;2.58;0.82;;;8.70;48.00;;;;;;5053850;28;20507;-72
2021/04/07 03:14:41;;;;;;;1.73;0.80;;;8.60;47.90;;;;;;5053903;28;20029;-71
2021/04/07 03:17:07;;;;;;;2.15;0.70;;;8.70;47.80;;;;;;5053364;28;20444;-71
2021/04/07 03:19:33;;;;;;;2.45;0.70;;;8.60;47.70;;;;;;5053368;28;20098;-72
2021/04/07 03:21:58;;;;;;;3.47;1.02;;;8.60;47.50;;;;;;5053085;28;20057;-72
2021/04/07 03:24:25;;;;;;;2.17;0.80;;;8.70;47.20;;;;;;5053150;28;20025;-71
2021/04/07 03:26:50;;;;;;;1.73;0.80;;;8.70;47.10;;;;;;5053276;28;20083;-72
2021/04/07 03:29:16;;;;;;;1.65;0.77;;;8.60;47.30;;;;;;5053275;28;20418;-71
2021/04/07 03:31:41;;;;;;;1.05;0.63;;;8.60;47.10;;;;;;5052963;28;20079;-70
2021/04/07 03:34:07;;;;;;;2.00;0.68;;;8.50;47.10;;;;;;5053079;28;20028;-71
2021/04/07 03:36:33;;;;;;;2.33;0.60;;;8.40;47.20;;;;;;5052825;28;20125;-70
2021/04/07 03:38:59;;;;;;;1.73;0.73;;;8.50;47.30;;;;;;5051974;28;20029;-72
2021/04/07 03:41:24;;;;;;;3.17;0.90;;;8.40;47.10;;;;;;5052654;28;20029;-72
2021/04/07 03:43:50;;;;;;;2.53;0.80;;;8.40;47.20;;;;;;5052608;28;20116;-70
2021/04/07 03:46:16;;;;;;;1.65;0.68;;;8.30;47.30;;;;;;5052896;28;20458;-70
2021/04/07 03:48:42;;;;;;;2.38;0.73;;;8.50;47.20;;;;;;5053072;28;20374;-70
2021/04/07 03:51:11;;;;;;;1.75;0.75;;;8.40;46.80;;;;;;5052738;28;20032;-72
2021/04/07 03:53:37;;;;;;;1.80;0.60;;;8.40;47.30;;;;;;5052877;28;20104;-71
2021/04/07 03:56:03;;;;;;;2.45;0.90;;;8.40;46.90;;;;;;5052525;28;20453;-70
2021/04/07 03:58:28;;;;;;;2.45;0.70;;;8.40;46.80;;;;;;5052876;28;20120;-70
2021/04/07 04:00:54;;;;;;;3.22;0.70;;;8.40;46.70;;;;;;5052596;28;20524;-71
2021/04/07 04:03:21;;;;;;;3.40;0.88;;;8.40;46.40;;;;;;5053066;28;20060;-71
2021/04/07 04:05:47;;;;;;;0.60;0.52;;;8.30;46.50;;;;;;5052830;28;20037;-71
2021/04/07 04:08:13;;;;;;;2.30;0.70;;;8.40;46.40;;;;;;5052861;28;20032;-71
2021/04/07 04:10:39;;;;;;;1.58;0.60;;;8.50;46.30;;;;;;5052726;28;20021;-70
2021/04/07 04:13:05;;;;;;;6.18;0.90;;;8.50;46.30;;;;;;5052772;28;20087;-71
2021/04/07 04:15:32;;;;;;;6.03;1.00;;;8.60;45.90;;;;;;5052654;28;20044;-71
2021/04/07 04:17:58;;;;;;;2.00;0.77;;;8.60;45.90;;;;;;5052921;28;20025;-71
2021/04/07 04:20:24;;;;;;;3.38;0.95;;;8.60;46.10;;;;;;5052311;28;20038;-73
2021/04/07 04:22:50;;;;;;;2.95;0.60;;;8.50;46.30;;;;;;5052286;28;20056;-71
2021/04/07 04:25:19;;;;;;;1.10;0.60;;;8.60;46.30;;;;;;5052396;28;20029;-71
2021/04/07 04:27:45;;;;;;;3.92;1.10;;;8.50;46.30;;;;;;5052304;28;20029;-70
2021/04/07 04:30:13;;;;;;;2.95;0.77;;;8.50;46.30;;;;;;5052376;28;20021;-71
2021/04/07 04:32:40;;;;;;;1.98;0.70;;;8.50;46.40;;;;;;5052251;28;20024;-71
2021/04/07 04:35:08;;;;;;;2.97;0.95;;;8.50;46.80;;;;;;5052530;28;20025;-70
2021/04/07 04:37:34;;;;;;;8.57;3.70;;;8.50;46.50;;;;;;5052438;28;20048;-72
2021/04/07 04:40:00;;;;;;;3.35;0.98;;;8.40;46.70;;;;;;5051291;28;20503;-71
2021/04/07 04:42:26;;;;;;;3.85;1.00;;;8.40;47.10;;;;;;5052460;28;20022;-70
2021/04/07 04:44:52;;;;;;;1.10;0.70;;;8.30;46.90;;;;;;5052226;28;20040;-70
2021/04/07 04:47:18;;;;;;;2.88;1.08;;;8.50;46.80;;;;;;5052457;28;20056;-71
2021/04/07 04:49:44;;;;;;;3.47;1.17;;;8.60;46.50;;;;;;5056486;28;20382;-70
2021/04/07 04:52:09;;;;;;;2.60;0.88;;;8.70;46.00;;;;;;5055919;28;20105;-71
2021/04/07 04:54:35;;;;;;;3.08;0.85;;;8.80;46.00;;;;;;5056549;28;20338;-70
2021/04/07 04:57:01;;;;;;;5.20;1.00;;;8.90;45.50;;;;;;5056419;28;20111;-71
2021/04/07 04:59:27;;;;;;;3.33;0.80;;;8.80;45.30;;;;;;5056179;28;20100;-70
2021/04/07 05:01:53;;;;;;;4.38;0.93;;;8.90;45.80;;;;;;5056001;28;20426;-71
2021/04/07 05:04:19;;;;;;;2.65;0.77;;;8.70;45.30;;;;;;5055873;28;20017;-71
2021/04/07 05:06:45;;;;;;;3.40;0.90;;;8.70;45.50;;;;;;5055871;28;20120;-70
2021/04/07 05:09:10;;;;;;;3.10;0.70;;;8.60;45.50;;;;;;5055992;28;20025;-71
2021/04/07 05:11:36;;;;;;;2.83;1.35;;;8.70;45.80;;;;;;5055845;28;20466;-72
2021/04/07 05:14:03;;;;;;;3.58;0.95;;;9.00;45.70;;;;;;5055885;28;20413;-71
2021/04/07 05:16:31;;;;;;;4.35;1.10;;;9.10;44.90;;;;;;5055964;28;20025;-71
2021/04/07 05:18:57;;;;;;;4.65;1.00;;;9.20;45.30;;;;;;5055836;28;20025;-72
2021/04/07 05:21:23;;;;;;;4.28;1.10;;;9.10;44.90;;;;;;5069923;22;20409;-70
2021/04/07 05:23:48;;;;;;;7.47;1.33;;;9.10;45.10;;;;;;5055738;28;20103;-70
2021/04/07 05:26:14;;;;;;;6.22;1.27;;;9.00;44.90;;;;;;5054441;28;20040;-68
2021/04/07 05:28:41;;;;;;;4.70;1.67;;;8.80;45.20;;;;;;5055417;28;20064;-71
2021/04/07 05:31:08;;;;;;;4.93;1.55;;;8.80;45.00;;;;;;5055620;28;20025;-68
2021/04/07 05:33:35;;;;;;;8.05;1.13;;;8.80;45.40;;;;;;5055667;28;20025;-68
2021/04/07 05:36:04;;;;;;;2.63;1.05;;;8.70;45.50;;;;;;5055763;28;20025;-69
2021/04/07 05:38:30;;;;;;;3.30;1.10;;;8.70;45.00;;;;;;5055560;28;20032;-67
2021/04/07 05:40:57;;;;;;;4.22;1.25;;;8.90;45.20;;;;;;5055276;28;20025;-69
2021/04/07 05:43:24;;;;;;;3.83;1.25;;;9.00;45.00;;;;;;5055249;28;20026;-70
2021/04/07 05:45:50;;;;;;;8.43;1.35;;;9.10;45.00;;;;;;5054865;28;20038;-68
2021/04/07 05:48:16;;;;;;;5.13;1.30;;;9.10;44.30;;;;;;5055423;28;20063;-69
2021/04/07 05:50:52;;;;;;;2.05;1.20;;;9.20;44.20;;;;;;5055178;28;20029;-69
2021/04/07 05:53:19;;;;;;;5.88;1.75;;;9.20;44.40;;;;;;5055412;28;20109;-71
2021/04/07 05:55:46;;;;;;;4.20;1.25;;;9.30;43.70;;;;;;5054718;28;20021;-68
2021/04/07 05:58:13;;;;;;;4.03;1.40;;;9.40;43.60;;;;;;5054782;28;20029;-70
2021/04/07 06:00:39;;;;;;;6.25;1.30;;;9.50;43.60;;;;;;5054778;28;20021;-71
2021/04/07 06:03:06;;;;;;;6.40;1.15;;;9.60;43.60;;;;;;5054736;28;20025;-71
2021/04/07 06:05:32;;;;;;;6.28;1.58;;;9.60;43.10;;;;;;5054639;28;20101;-69
2021/04/07 06:07:58;;;;;;;6.78;1.45;;;9.70;43.30;;;;;;5054851;28;20037;-70
2021/04/07 06:10:25;;;;;;;5.78;1.17;;;9.70;43.00;;;;;;5054492;28;20091;-70
2021/04/07 06:12:51;;;;;;;7.57;1.63;;;9.80;42.60;;;;;;5054922;28;20390;-71
2021/04/07 06:15:17;;;;;;;4.35;1.30;;;9.90;42.00;;;;;;5054759;28;20025;-70
2021/04/07 06:17:52;;;;;;;3.38;1.30;;;10.00;41.00;;;;;;5054643;28;20111;-68
2021/04/07 06:20:19;;;;;;;5.50;1.20;;;10.20;40.70;;;;;;5054973;28;20032;-69
2021/04/07 06:22:44;;;;;;;3.63;1.40;;;10.50;40.90;;;;;;5054092;28;20123;-67
2021/04/07 06:25:10;;;;;;;6.07;2.03;;;10.70;40.60;;;;;;5054203;28;20474;-70
2021/04/07 06:27:36;;;;;;;3.60;1.20;;;10.60;39.90;;;;;;5053007;28;20029;-69
2021/04/07 06:30:03;;;;;;;5.95;1.63;;;10.60;40.00;;;;;;5054337;28;20051;-69
2021/04/07 06:32:29;;;;;;;5.43;2.05;;;10.70;40.10;;;;;;5054299;28;20422;-68
2021/04/07 06:34:54;;;;;;;13.48;1.35;;;10.80;40.00;;;;;;5054106;28;20078;-68
2021/04/07 06:37:21;;;;;;;13.13;1.73;;;10.80;39.40;;;;;;5054212;28;20025;-69
2021/04/07 06:39:47;;;;;;;3.78;1.30;;;10.80;39.20;;;;;;5053980;28;20066;-70
2021/04/07 06:42:16;;;;;;;8.13;1.40;;;10.80;39.40;;;;;;5053642;28;20029;-68
2021/04/07 06:44:42;;;;;;;5.63;1.50;;;10.80;39.90;;;;;;5053862;28;20032;-69
2021/04/07 06:47:09;;;;;;;6.60;1.30;;;10.90;39.40;;;;;;5054185;28;20033;-70
2021/04/07 06:49:35;;;;;;;3.17;1.25;;;10.90;39.20;;;;;;5053952;28;20017;-71
2021/04/07 06:52:06;;;;;;;7.65;1.20;;;11.10;39.30;;;;;;5053745;28;20389;-68
2021/04/07 06:54:33;;;;;;;4.75;1.88;;;11.30;39.40;;;;;;5054021;28;20064;-68
2021/04/07 06:56:59;;;;;;;8.20;1.65;;;11.50;39.00;;;;;;5053595;28;20060;-72
2021/04/07 06:59:27;;;;;;;6.85;1.55;;;11.50;39.30;;;;;;5053588;28;20344;-70
2021/04/07 07:01:52;;;;;;;5.43;1.40;;;11.70;39.00;;;;;;5053739;28;20047;-70
2021/04/07 07:04:18;;;;;;;5.85;1.52;;;11.90;38.90;;;;;;5053340;28;20385;-71
2021/04/07 07:06:46;;;;;;;4.38;1.20;;;11.90;38.30;;;;;;5053575;28;20035;-70
2021/04/07 07:09:19;;;;;;;8.18;1.63;;;11.90;38.20;;;;;;5053576;28;20025;-75
2021/04/07 07:11:49;;;;;;;3.42;1.45;;;11.80;38.10;;;;;;5053554;28;20096;-70
2021/04/07 07:14:16;;;;;;;3.88;1.67;;;11.70;38.00;;;;;;5054021;28;20504;-70
2021/04/07 07:16:46;;;;;;;5.07;1.10;;;11.60;38.10;;;;;;5053307;28;20029;-69
2021/04/07 07:19:27;;;;;;;4.13;1.40;;;11.80;38.50;;;;;;5053878;28;20052;-70
2021/04/07 07:21:55;;;;;;;5.35;1.30;;;12.00;38.10;;;;;;5053052;28;20502;-69
2021/04/07 07:24:35;;;;;;;5.55;1.40;;;12.00;38.30;;;;;;5053139;28;20017;-69
2021/04/07 07:27:03;;;;;;;5.25;1.38;;;12.20;38.30;;;;;;5053299;28;20107;-70
2021/04/07 07:29:31;;;;;;;2.55;1.20;;;12.30;38.50;;;;;;5052929;28;20017;-70
2021/04/07 07:32:02;;;;;;;4.10;1.10;;;12.20;37.90;;;;;;5052823;28;20025;-70
2021/04/07 07:34:29;;;;;;;4.47;1.27;;;12.30;37.60;;;;;;5053306;28;20032;-68
2021/04/07 07:36:57;;;;;;;3.58;1.25;;;12.30;37.70;;;;;;5053060;28;20028;-69
2021/04/07 07:39:30;;;;;;;3.78;1.20;;;12.30;38.20;;;;;;5053055;28;20072;-68
2021/04/07 07:42:01;;;;;;;5.65;1.50;;;12.20;37.00;;;;;;5052661;28;20402;-71
2021/04/07 07:44:28;;;;;;;6.95;1.27;;;12.20;37.70;;;;;;5052822;28;20028;-68
2021/04/07 07:47:03;;;;;;;5.13;1.48;;;12.20;37.90;;;;;;5052786;28;20029;-69
2021/04/07 07:49:29;;;;;;;6.82;1.85;;;12.10;37.80;;;;;;5052984;28;20036;-70
2021/04/07 07:51:55;;;;;;;8.10;1.42;;;12.20;37.70;;;;;;5052816;28;20096;-69
2021/04/07 07:54:23;;;;;;;3.22;1.10;;;12.10;37.40;;;;;;5052825;28;20032;-69
2021/04/07 07:56:50;;;;;;;3.47;0.98;;;12.10;37.50;;;;;;5053169;28;20048;-69
2021/04/07 07:59:29;;;;;;;4.95;1.13;;;12.10;37.30;;;;;;5052680;28;20017;-71
2021/04/07 08:01:55;;;;;;;5.00;1.20;;;12.10;37.70;;;;;;5052817;28;20474;-69
2021/04/07 08:04:21;;;;;;;6.55;1.30;;;12.20;37.40;;;;;;5052433;28;20021;-68
2021/04/07 08:06:47;;;;;;;4.18;1.30;;;12.30;37.90;;;;;;5052524;28;20029;-71
2021/04/07 08:09:13;;;;;;;5.43;1.35;;;12.40;37.90;;;;;;5052626;28;20124;-70
2021/04/07 08:11:43;;;;;;;5.00;1.40;;;12.40;37.30;;;;;;5052508;28;20036;-68
2021/04/07 08:14:15;;;;;;;2.58;1.20;;;12.40;37.80;;;;;;5052739;28;20024;-68
2021/04/07 08:16:43;;;;;;;4.80;1.40;;;12.40;36.70;;;;;;5052382;28;20032;-68
2021/04/07 08:19:11;;;;;;;3.47;1.10;;;12.40;37.60;;;;;;5052366;28;20024;-67
2021/04/07 08:21:40;;;;;;;5.05;1.60;;;12.40;37.60;;;;;;5051599;28;20057;-69
2021/04/07 08:24:09;;;;;;;3.67;1.27;;;12.30;36.70;;;;;;5054602;28;20363;-68
2021/04/07 08:26:42;;;;;;;6.65;1.60;;;12.30;37.40;;;;;;5055289;28;20033;-70
2021/04/07 08:29:08;;;;;;;7.88;1.85;;;12.40;37.70;;;;;;5053783;28;20048;-69
2021/04/07 08:31:36;;;;;;;4.35;1.80;;;12.30;37.40;;;;;;5054975;28;20036;-70
2021/04/07 08:34:09;;;;;;;4.45;1.52;;;12.30;37.60;;;;;;5054820;28;20021;-69
2021/04/07 08:36:35;;;;;;;6.68;2.20;;;12.20;37.50;;;;;;5054923;28;20059;-68
2021/04/07 08:39:11;;;;;;;3.30;1.35;;;12.30;37.70;;;;;;5054835;28;20029;-70
2021/04/07 08:41:37;;;;;;;9.18;1.40;;;12.40;37.00;;;;;;5054916;28;20013;-69
2021/04/07 08:44:05;;;;;;;5.15;1.30;;;12.30;37.50;;;;;;5055012;28;20029;-68
2021/04/07 08:46:44;;;;;;;3.75;1.13;;;12.30;37.30;;;;;;5054635;28;20063;-70
2021/04/07 08:49:32;;;;;;;7.13;1.67;;;12.30;37.70;;;;;;5054638;28;20068;-69
2021/04/07 08:51:58;;;;;;;3.83;1.15;;;12.40;36.70;;;;;;5054614;28;20036;-69
2021/04/07 08:54:24;;;;;;;3.75;1.48;;;12.40;37.60;;;;;;5053593;28;20438;-71
2021/04/07 08:56:57;;;;;;;6.43;2.10;;;12.50;37.50;;;;;;5054679;28;20516;-72
2021/04/07 08:59:24;;;;;;;4.90;1.40;;;12.50;37.60;;;;;;5054574;28;20049;-69
2021/04/07 09:02:05;;;;;;;4.80;1.45;;;12.60;37.60;;;;;;5054670;28;20378;-69
2021/04/07 09:04:35;;;;;;;7.63;1.85;;;12.70;37.70;;;;;;5054615;28;20021;-69
2021/04/07 09:07:02;;;;;;;22.40;2.30;;;12.70;37.40;;;;;;5054496;28;20028;-68
2021/04/07 09:09:34;;;;;;;17.92;1.92;;;12.80;37.40;;;;;;5054436;28;20044;-68
2021/04/07 09:12:01;;;;;;;3.50;1.20;;;12.90;37.70;;;;;;5054568;28;20025;-69
2021/04/07 09:14:28;;;;;;;7.35;1.30;;;13.00;37.10;;;;;;5054461;28;20025;-70
2021/04/07 09:17:04;;;;;;;10.90;2.17;;;13.00;37.40;;;;;;5054488;28;20025;-67
2021/04/07 09:19:32;;;;;;;5.40;1.33;;;13.00;37.10;;;;;;5054415;28;20475;-69
2021/04/07 09:22:08;;;;;;;6.25;1.60;;;13.10;37.00;;;;;;5028059;28;764584;-70
2021/04/07 09:24:39;;;;;;;2.75;1.13;;;13.30;37.30;;;;;;5055327;28;20112;-69
2021/04/07 09:27:05;;;;;;;4.63;1.30;;;13.40;36.70;;;;;;5055054;28;20040;-69
2021/04/07 09:29:31;;;;;;;4.93;1.77;;;13.40;35.60;;;;;;5055152;28;20025;-70
2021/04/07 09:31:56;;;;;;;5.75;1.58;;;13.50;36.40;;;;;;5055386;28;20017;-68
2021/04/07 09:34:24;;;;;;;3.75;1.25;;;13.60;36.10;;;;;;5054757;28;20477;-71
2021/04/07 09:36:50;;;;;;;3.10;1.55;;;13.60;35.30;;;;;;5053891;28;20025;-68
2021/04/07 09:39:24;;;;;;;4.65;1.60;;;13.60;35.20;;;;;;5055017;28;20021;-70
2021/04/07 09:41:50;;;;;;;3.88;1.50;;;13.50;33.10;;;;;;5054922;28;20470;-69
2021/04/07 09:44:17;;;;;;;6.10;1.42;;;13.50;34.80;;;;;;5055229;28;20090;-68
2021/04/07 09:46:56;;;;;;;3.90;1.40;;;13.50;34.80;;;;;;5054914;28;20040;-69
2021/04/07 09:49:24;;;;;;;4.30;1.95;;;13.50;33.00;;;;;;5053537;28;20494;-69
2021/04/07 09:51:50;;;;;;;5.22;1.60;;;13.60;34.40;;;;;;5054909;28;20131;-68
2021/04/07 09:54:29;;;;;;;3.78;1.60;;;13.60;34.30;;;;;;5055185;28;20053;-68
2021/04/07 09:57:00;;;;;;;3.58;1.40;;;13.60;32.40;;;;;;5055502;28;20095;-69
2021/04/07 09:59:42;;;;;;;6.72;1.50;;;13.60;31.60;;;;;;5054844;28;20082;-70
2021/04/07 10:02:23;;;;;;;6.65;1.40;;;13.50;32.40;;;;;;5054336;28;20112;-69
2021/04/07 10:04:51;;;;;;;4.63;1.40;;;13.50;31.20;;;;;;5054981;28;20350;-67
2021/04/07 10:07:21;;;;;;;8.95;1.80;;;13.60;32.60;;;;;;5054674;28;20078;-68
2021/04/07 10:09:48;;;;;;;3.50;1.42;;;13.60;32.10;;;;;;5054694;28;20021;-69
2021/04/07 10:12:15;;;;;;;5.13;1.67;;;13.60;32.30;;;;;;5054810;28;20025;-70
2021/04/07 10:14:54;;;;;;;4.38;1.75;;;13.60;33.00;;;;;;5054748;28;20119;-69
2021/04/07 10:17:22;;;;;;;5.03;1.63;;;13.80;33.30;;;;;;5054859;28;20061;-70
2021/04/07 10:19:48;;;;;;;6.35;1.70;;;13.90;33.60;;;;;;5054583;28;20029;-68
2021/04/07 10:22:26;;;;;;;4.25;1.50;;;14.00;33.10;;;;;;5054150;28;20375;-68
2021/04/07 10:28:05;;;;;;;2.83;1.45;;;14.20;31.10;;;;;;5032173;28;20395;-69
2021/04/07 10:30:41;;;;;;;4.95;1.30;;;14.30;30.60;;;;;;5032380;28;20025;-69
2021/04/07 10:33:07;;;;;;;4.05;1.48;;;14.60;30.50;;;;;;5044004;28;20033;-67
2021/04/07 10:35:35;;;;;;;2.97;1.50;;;14.70;30.40;;;;;;5054166;28;20041;-70
2021/04/07 10:38:04;;;;;;;8.75;1.77;;;14.90;29.80;;;;;;5054215;28;20105;-69
2021/04/07 10:40:32;;;;;;;4.57;1.60;;;15.10;29.90;;;;;;5054141;28;20021;-68
2021/04/07 10:43:08;;;;;;;4.45;1.30;;;15.20;29.40;;;;;;5054087;28;20033;-69
2021/04/07 10:45:34;;;;;;;4.22;1.10;;;15.20;28.70;;;;;;5051840;28;20041;-69
2021/04/07 10:48:04;;;;;;;2.75;1.10;;;15.10;28.50;;;;;;5054150;28;20040;-68
2021/04/07 10:50:35;;;;;;;5.22;1.30;;;15.10;28.00;;;;;;5054103;28;20040;-70
2021/04/07 10:53:00;;;;;;;2.95;1.20;;;15.20;27.80;;;;;;5054203;28;20381;-69
2021/04/07 10:55:28;;;;;;;5.40;1.80;;;15.20;27.80;;;;;;5053901;28;20040;-69
2021/04/07 10:57:56;;;;;;;5.00;1.27;;;15.30;28.20;;;;;;5054389;28;20124;-68
2021/04/07 11:00:32;;;;;;;3.85;1.00;;;15.40;27.60;;;;;;5053778;28;20029;-70
2021/04/07 11:02:59;;;;;;;2.20;1.17;;;15.60;27.00;;;;;;5053915;28;20021;-69
2021/04/07 11:05:27;;;;;;;4.20;1.23;;;15.70;27.20;;;;;;5053632;28;20025;-69
2021/04/07 11:08:04;;;;;;;3.90;1.20;;;15.60;26.50;;;;;;5053856;28;20052;-68
2021/04/07 11:10:37;;;;;;;3.75;1.20;;;15.70;25.70;;;;;;5053984;28;20044;-68
2021/04/07 11:13:07;;;;;;;5.80;1.30;;;15.70;25.80;;;;;;5054270;28;20112;-70
2021/04/07 11:15:33;;;;;;;4.22;1.17;;;15.70;25.50;;;;;;5052220;28;20075;-70
2021/04/07 11:17:59;;;;;;;4.60;1.30;;;15.80;25.40;;;;;;5053596;28;20053;-69
2021/04/07 11:20:26;;;;;;;3.80;1.35;;;15.80;24.70;;;;;;5053472;28;20032;-68
2021/04/07 11:22:52;;;;;;;2.03;1.20;;;15.80;25.40;;;;;;5053132;28;20057;-70
2021/04/07 11:25:20;;;;;;;4.32;1.13;;;15.80;24.90;;;;;;5053215;28;20056;-69
2021/04/07 11:27:52;;;;;;;10.27;1.73;;;15.80;25.30;;;;;;5053118;28;20458;-67
2021/04/07 11:30:19;;;;;;;5.25;1.48;;;15.90;24.60;;;;;;5053378;28;20025;-68
2021/04/07 11:32:53;;;;;;;4.80;1.70;;;15.90;24.30;;;;;;5053444;28;20536;-69
2021/04/07 11:40:20;;;;;;;3.58;1.42;;;16.00;24.10;;;;;;5053662;28;20036;-69
2021/04/07 11:43:03;;;;;;;4.22;1.60;;;16.00;24.40;;;;;;5053353;28;20062;-68
2021/04/07 11:45:29;;;;;;;7.10;1.50;;;16.20;24.30;;;;;;5052890;28;20141;-68
2021/04/07 11:47:55;;;;;;;6.45;1.50;;;16.30;24.70;;;;;;5051719;28;20556;-69
2021/04/07 11:50:21;;;;;;;3.28;1.50;;;16.50;24.60;;;;;;5052984;28;20025;-68
2021/04/07 11:52:46;;;;;;;3.17;1.27;;;16.60;24.90;;;;;;5053239;28;20025;-70
2021/04/07 11:55:13;;;;;;;3.58;0.95;;;16.50;24.40;;;;;;5052904;28;20481;-69
2021/04/07 11:57:38;;;;;;;3.13;1.10;;;16.40;23.90;;;;;;5052965;28;20308;-69
2021/04/07 12:00:09;;;;;;;2.67;1.10;;;16.30;24.10;;;;;;5052470;28;20071;-69
2021/04/07 12:02:37;;;;;;;5.95;1.38;;;16.20;23.70;;;;;;5052608;28;20024;-68
2021/04/07 12:05:03;;;;;;;5.85;1.75;;;16.20;23.60;;;;;;5053092;28;20128;-69
2021/04/07 12:07:28;;;;;;;5.88;1.63;;;16.20;23.80;;;;;;5053142;28;20432;-69
2021/04/07 12:09:54;;;;;;;2.78;1.15;;;16.30;24.30;;;;;;5052964;28;20480;-68
2021/04/07 12:12:20;;;;;;;4.30;1.08;;;16.30;24.10;;;;;;5053012;28;20021;-70
2021/04/07 12:14:46;;;;;;;6.10;1.30;;;16.20;24.00;;;;;;5052362;28;20079;-70
2021/04/07 12:17:12;;;;;;;4.63;1.42;;;16.20;24.00;;;;;;5053718;28;20028;-69
2021/04/07 12:19:37;;;;;;;3.92;1.45;;;16.30;23.70;;;;;;5053102;28;20447;-70
2021/04/07 12:22:03;;;;;;;4.15;1.20;;;16.20;23.60;;;;;;5052593;28;20437;-71
2021/04/07 12:24:29;;;;;;;3.40;1.20;;;16.20;23.40;;;;;;5052548;28;20017;-69
2021/04/07 12:26:56;;;;;;;3.80;1.70;;;16.20;23.50;;;;;;5052675;28;20492;-70
2021/04/07 12:29:23;;;;;;;4.85;1.10;;;16.20;23.70;;;;;;5052515;28;20032;-72
2021/04/07 12:31:49;;;;;;;3.13;1.30;;;16.20;23.90;;;;;;5052632;28;20109;-69
2021/04/07 12:34:15;;;;;;;4.63;1.20;;;16.20;24.00;;;;;;5051752;28;20470;-70
2021/04/07 12:36:41;;;;;;;2.88;1.20;;;16.10;23.70;;;;;;5051199;28;20482;-68
2021/04/07 12:39:07;;;;;;;5.40;1.33;;;16.00;23.80;;;;;;5052455;28;20112;-69
2021/04/07 12:44:08;;;;;;;5.15;1.58;;;15.70;23.50;;;;;;5052395;28;20526;-69
2021/04/07 12:46:33;;;;;;;4.95;1.20;;;15.70;23.40;;;;;;5052638;28;20061;-69
2021/04/07 12:48:59;;;;;;;4.32;1.33;;;15.70;23.00;;;;;;5052449;28;20040;-70
2021/04/07 12:51:25;;;;;;;4.63;1.55;;;15.70;23.20;;;;;;5052348;28;20033;-68
2021/04/07 12:53:51;;;;;;;4.97;1.45;;;15.60;22.70;;;;;;5052520;28;20487;-69
2021/04/07 12:56:20;;;;;;;2.22;1.00;;;15.60;22.90;;;;;;5052432;28;20382;-68
2021/04/07 12:58:48;;;;;;;4.43;1.40;;;15.50;22.90;;;;;;5052084;28;20354;-70
2021/04/07 13:01:14;;;;;;;3.78;1.20;;;15.50;23.00;;;;;;5051230;28;20347;-70
2021/04/07 13:03:40;;;;;;;3.13;1.30;;;15.40;23.10;;;;;;5050601;28;20028;-68